createdAt,value
2022-09-25T00:00:58.092Z,94.55
2022-09-25T00:01:57.976Z,93.35
2022-09-25T00:02:57.972Z,93.84
2022-09-25T00:03:57.918Z,93.69
2022-09-25T00:04:57.918Z,92.97
2022-09-25T00:05:57.928Z,92.78
2022-09-25T00:06:57.936Z,93.35
2022-09-25T00:07:57.931Z,93.40
2022-09-25T00:08:57.950Z,93.35
2022-09-25T00:09:57.917Z,93.16
2022-09-25T00:10:57.930Z,92.78
2022-09-25T00:11:57.940Z,93.26
2022-09-25T00:12:57.933Z,93.16
2022-09-25T00:13:57.924Z,93.45
2022-09-25T00:14:57.919Z,93.64
2022-09-25T00:15:57.987Z,93.93
2022-09-25T00:16:57.973Z,93.74
2022-09-25T00:17:57.942Z,93.93
2022-09-25T00:18:57.948Z,94.12
2022-09-25T00:19:57.924Z,94.12
2022-09-25T00:20:57.922Z,93.93
2022-09-25T00:21:57.936Z,94.12
2022-09-25T00:22:57.942Z,94.12
2022-09-25T00:23:57.950Z,93.74
2022-09-25T00:24:57.924Z,93.55
2022-09-25T00:25:57.938Z,93.64
2022-09-25T00:26:57.943Z,94.21
2022-09-25T00:27:57.923Z,94.50
2022-09-25T00:28:57.924Z,94.60
2022-09-25T00:29:57.934Z,94.60
2022-09-25T00:30:57.939Z,94.31
2022-09-25T00:31:57.940Z,94.31
2022-09-25T00:32:57.936Z,94.70
2022-09-25T00:33:57.936Z,94.50
2022-09-25T00:34:57.948Z,94.60
2022-09-25T00:35:57.928Z,94.60
2022-09-25T00:36:57.936Z,94.41
2022-09-25T00:37:57.941Z,94.50
2022-09-25T00:38:57.942Z,94.41
2022-09-25T00:39:57.929Z,94.21
2022-09-25T00:40:57.981Z,94.21
2022-09-25T00:41:57.929Z,94.12
2022-09-25T00:42:57.943Z,94.21
2022-09-25T00:43:57.937Z,94.50
2022-09-25T00:44:57.942Z,94.02
2022-09-25T00:45:58.016Z,93.84
2022-09-25T00:46:57.973Z,93.84
2022-09-25T00:47:57.952Z,93.55
2022-09-25T00:48:57.942Z,93.84
2022-09-25T00:49:57.950Z,93.84
2022-09-25T00:50:57.941Z,93.55
2022-09-25T00:51:57.939Z,94.02
2022-09-25T00:52:57.968Z,93.84
2022-09-25T00:53:57.938Z,93.84
2022-09-25T00:54:57.949Z,93.16
2022-09-25T00:55:57.966Z,92.97
2022-09-25T00:56:57.945Z,92.69
2022-09-25T00:57:57.979Z,92.49
2022-09-25T00:58:57.950Z,92.69
2022-09-25T00:59:57.942Z,92.69
2022-09-25T01:00:58.033Z,92.59
2022-09-25T01:01:57.978Z,92.30
2022-09-25T01:02:58.025Z,92.97
2022-09-25T01:03:57.955Z,92.78
2022-09-25T01:04:57.953Z,92.97
2022-09-25T01:05:57.954Z,92.97
2022-09-25T01:06:57.959Z,92.78
2022-09-25T01:07:57.966Z,92.69
2022-09-25T01:08:57.968Z,93.16
2022-09-25T01:09:57.946Z,93.26
2022-09-25T01:10:57.954Z,92.78
2022-09-25T01:11:57.965Z,92.78
2022-09-25T01:12:57.981Z,92.59
2022-09-25T01:13:57.958Z,92.59
2022-09-25T01:14:57.949Z,92.40
2022-09-25T01:15:57.966Z,92.69
2022-09-25T01:16:58.047Z,92.59
2022-09-25T01:17:57.958Z,92.59
2022-09-25T01:18:57.949Z,92.69
2022-09-25T01:19:57.977Z,92.78
2022-09-25T01:20:57.985Z,92.40
2022-09-25T01:21:57.969Z,92.59
2022-09-25T01:22:57.971Z,92.78
2022-09-25T01:23:57.974Z,92.78
2022-09-25T01:24:58.038Z,92.78
2022-09-25T01:25:57.951Z,92.40
2022-09-25T01:26:57.987Z,93.16
2022-09-25T01:27:57.967Z,92.97
2022-09-25T01:28:57.975Z,92.59
2022-09-25T01:29:57.959Z,92.59
2022-09-25T01:30:57.988Z,92.78
2022-09-25T01:31:57.967Z,92.40
2022-09-25T01:32:58.010Z,92.59
2022-09-25T01:33:57.980Z,92.97
2022-09-25T01:34:57.960Z,92.59
2022-09-25T01:35:57.959Z,93.07
2022-09-25T01:36:57.958Z,93.35
2022-09-25T01:37:57.962Z,93.26
2022-09-25T01:38:57.969Z,93.45
2022-09-25T01:39:57.981Z,93.16
2022-09-25T01:40:58.152Z,92.88
2022-09-25T01:41:57.969Z,92.78
2022-09-25T01:42:57.979Z,92.88
2022-09-25T01:43:57.978Z,93.16
2022-09-25T01:44:57.980Z,92.69
2022-09-25T01:45:58.030Z,92.69
2022-09-25T01:46:57.972Z,92.78
2022-09-25T01:47:57.976Z,92.97
2022-09-25T01:48:57.972Z,93.16
2022-09-25T01:49:57.962Z,93.35
2022-09-25T01:50:57.988Z,93.26
2022-09-25T01:51:57.963Z,93.84
2022-09-25T01:52:57.973Z,93.64
2022-09-25T01:53:57.977Z,93.45
2022-09-25T01:54:57.980Z,92.78
2022-09-25T01:55:57.993Z,92.97
2022-09-25T01:56:58.018Z,92.69
2022-09-25T01:57:57.973Z,93.07
2022-09-25T01:58:57.984Z,93.35
2022-09-25T01:59:57.976Z,93.93
2022-09-25T02:00:58.040Z,93.93
2022-09-25T02:01:57.989Z,93.93
2022-09-25T02:02:58.012Z,93.84
2022-09-25T02:03:58.000Z,93.93
2022-09-25T02:04:57.966Z,93.84
2022-09-25T02:05:57.983Z,93.55
2022-09-25T02:06:57.987Z,94.12
2022-09-25T02:07:57.994Z,93.93
2022-09-25T02:08:57.980Z,94.41
2022-09-25T02:09:57.987Z,94.41
2022-09-25T02:10:57.977Z,93.84
2022-09-25T02:11:57.997Z,93.64
2022-09-25T02:12:57.990Z,93.64
2022-09-25T02:13:57.991Z,93.84
2022-09-25T02:14:57.997Z,93.84
2022-09-25T02:15:57.999Z,93.64
2022-09-25T02:16:58.076Z,94.50
2022-09-25T02:17:57.998Z,94.26
2022-09-25T02:18:58.007Z,94.46
2022-09-25T02:19:57.976Z,94.55
2022-09-25T02:20:57.974Z,95.17
2022-09-25T02:21:57.988Z,95.07
2022-09-25T02:22:57.979Z,95.36
2022-09-25T02:23:58.003Z,95.46
2022-09-25T02:24:59.309Z,95.70
2022-09-25T02:25:57.982Z,94.89
2022-09-25T02:26:57.984Z,95.12
2022-09-25T02:27:57.992Z,95.07
2022-09-25T02:28:58.011Z,94.93
2022-09-25T02:29:58.030Z,95.12
2022-09-25T02:30:58.021Z,95.03
2022-09-25T02:31:58.004Z,94.93
2022-09-25T02:32:58.011Z,94.65
2022-09-25T02:33:58.002Z,95.51
2022-09-25T02:34:58.005Z,95.03
2022-09-25T02:35:57.995Z,95.61
2022-09-25T02:36:58.000Z,95.51
2022-09-25T02:37:57.997Z,95.51
2022-09-25T02:38:57.994Z,95.61
2022-09-25T02:39:58.052Z,95.41
2022-09-25T02:40:58.034Z,95.41
2022-09-25T02:41:58.000Z,95.79
2022-09-25T02:42:57.993Z,95.79
2022-09-25T02:43:58.001Z,95.79
2022-09-25T02:44:58.013Z,95.41
2022-09-25T02:45:58.036Z,95.41
2022-09-25T02:46:57.996Z,95.79
2022-09-25T02:47:57.992Z,95.51
2022-09-25T02:48:57.998Z,95.03
2022-09-25T02:49:57.995Z,95.41
2022-09-25T02:50:58.013Z,95.41
2022-09-25T02:51:58.002Z,95.61
2022-09-25T02:52:58.022Z,95.79
2022-09-25T02:53:58.001Z,95.70
2022-09-25T02:54:57.991Z,95.70
2022-09-25T02:55:58.025Z,95.61
2022-09-25T02:57:03.571Z,95.51
2022-09-25T02:57:58.001Z,96.08
2022-09-25T02:58:57.996Z,95.79
2022-09-25T02:59:58.008Z,95.70
2022-09-25T03:00:58.162Z,95.61
2022-09-25T03:01:58.051Z,95.89
2022-09-25T03:02:58.050Z,95.98
2022-09-25T03:03:58.018Z,95.61
2022-09-25T03:04:57.995Z,95.89
2022-09-25T03:05:58.000Z,96.37
2022-09-25T03:06:58.024Z,96.75
2022-09-25T03:07:58.010Z,96.75
2022-09-25T03:08:57.996Z,96.37
2022-09-25T03:09:57.999Z,96.66
2022-09-25T03:10:58.008Z,96.18
2022-09-25T03:11:58.007Z,96.08
2022-09-25T03:12:58.017Z,96.37
2022-09-25T03:13:58.038Z,96.37
2022-09-25T03:14:57.997Z,96.37
2022-09-25T03:15:58.076Z,96.56
2022-09-25T03:16:58.143Z,96.66
2022-09-25T03:17:58.003Z,96.56
2022-09-25T03:18:58.008Z,96.56
2022-09-25T03:19:58.044Z,96.47
2022-09-25T03:20:58.006Z,96.94
2022-09-25T03:21:58.014Z,97.23
2022-09-25T03:22:58.035Z,97.33
2022-09-25T03:23:57.999Z,97.23
2022-09-25T03:24:58.012Z,97.42
2022-09-25T03:25:58.012Z,97.52
2022-09-25T03:26:58.020Z,97.90
2022-09-25T03:27:58.003Z,97.71
2022-09-25T03:28:58.019Z,97.71
2022-09-25T03:29:57.999Z,97.61
2022-09-25T03:30:58.048Z,97.42
2022-09-25T03:31:58.017Z,97.33
2022-09-25T03:32:58.009Z,96.75
2022-09-25T03:33:58.038Z,97.52
2022-09-25T03:34:58.014Z,97.42
2022-09-25T03:35:58.010Z,97.33
2022-09-25T03:36:58.024Z,97.90
2022-09-25T03:37:58.025Z,97.52
2022-09-25T03:38:58.037Z,97.33
2022-09-25T03:39:58.028Z,96.75
2022-09-25T03:40:58.040Z,97.04
2022-09-25T03:41:58.008Z,97.04
2022-09-25T03:42:58.017Z,97.23
2022-09-25T03:43:58.047Z,96.94
2022-09-25T03:44:58.002Z,96.56
2022-09-25T03:45:58.030Z,96.66
2022-09-25T03:46:58.018Z,96.66
2022-09-25T03:47:58.006Z,97.04
2022-09-25T03:48:58.140Z,97.23
2022-09-25T03:49:58.022Z,96.56
2022-09-25T03:50:58.006Z,97.23
2022-09-25T03:51:58.032Z,97.71
2022-09-25T03:52:58.017Z,97.61
2022-09-25T03:53:58.028Z,97.71
2022-09-25T03:54:58.039Z,98.18
2022-09-25T03:55:58.012Z,98.09
2022-09-25T03:56:58.016Z,98.09
2022-09-25T03:57:58.010Z,98.47
2022-09-25T03:58:58.032Z,98.28
2022-09-25T03:59:58.042Z,98.18
2022-09-25T04:00:58.091Z,97.90
2022-09-25T04:01:58.044Z,98.18
2022-09-25T04:02:58.065Z,98.47
2022-09-25T04:03:58.031Z,98.57
2022-09-25T04:04:58.025Z,98.28
2022-09-25T04:05:58.026Z,98.85
2022-09-25T04:06:58.015Z,98.95
2022-09-25T04:07:58.024Z,98.57
2022-09-25T04:08:58.032Z,98.75
2022-09-25T04:09:58.038Z,98.66
2022-09-25T04:10:58.013Z,98.38
2022-09-25T04:11:58.052Z,98.09
2022-09-25T04:12:58.063Z,98.66
2022-09-25T04:13:58.025Z,98.38
2022-09-25T04:14:58.016Z,98.47
2022-09-25T04:15:58.050Z,98.38
2022-09-25T04:16:58.018Z,98.66
2022-09-25T04:18:01.120Z,98.57
2022-09-25T04:18:58.019Z,98.47
2022-09-25T04:19:58.020Z,98.66
2022-09-25T04:20:58.013Z,99.14
2022-09-25T04:21:58.017Z,98.85
2022-09-25T04:22:58.025Z,99.24
2022-09-25T04:23:58.042Z,99.43
2022-09-25T04:24:58.043Z,99.24
2022-09-25T04:25:58.031Z,99.24
2022-09-25T04:26:58.018Z,98.75
2022-09-25T04:27:58.028Z,98.75
2022-09-25T04:28:58.044Z,98.95
2022-09-25T04:29:58.031Z,98.75
2022-09-25T04:30:58.034Z,98.85
2022-09-25T04:31:58.071Z,97.99
2022-09-25T04:32:58.027Z,99.04
2022-09-25T04:33:58.030Z,98.95
2022-09-25T04:34:58.030Z,98.28
2022-09-25T04:35:58.025Z,98.28
2022-09-25T04:37:08.003Z,98.66
2022-09-25T04:37:58.522Z,98.95
2022-09-25T04:38:58.823Z,98.75
2022-09-25T04:39:58.795Z,98.75
2022-09-25T04:40:58.914Z,98.85
2022-09-25T04:41:58.958Z,99.04
2022-09-25T04:42:58.927Z,98.75
2022-09-25T04:43:58.862Z,99.04
2022-09-25T04:44:58.749Z,99.43
2022-09-25T04:45:58.913Z,99.52
2022-09-25T04:46:58.677Z,99.52
2022-09-25T04:47:58.913Z,99.33
2022-09-25T04:48:58.782Z,99.62
2022-09-25T04:49:58.152Z,99.24
2022-09-25T04:50:58.055Z,99.04
2022-09-25T04:51:58.725Z,99.04
2022-09-25T04:52:58.046Z,99.33
2022-09-25T04:53:58.022Z,99.24
2022-09-25T04:54:58.044Z,99.33
2022-09-25T04:55:58.033Z,99.52
2022-09-25T04:56:58.048Z,99.90
2022-09-25T04:57:59.348Z,99.81
2022-09-25T04:58:58.040Z,99.71
2022-09-25T04:59:58.032Z,99.71
2022-09-25T05:00:58.099Z,99.99
2022-09-25T05:01:58.162Z,99.90
2022-09-25T05:02:58.154Z,99.90
2022-09-25T05:03:58.035Z,99.71
2022-09-25T05:04:58.064Z,99.99
2022-09-25T05:05:58.042Z,99.62
2022-09-25T05:06:58.059Z,99.99
2022-09-25T05:07:58.041Z,99.90
2022-09-25T05:08:58.026Z,99.99
2022-09-25T05:09:58.051Z,99.99
2022-09-25T05:10:58.043Z,99.99
2022-09-25T05:11:58.033Z,99.99
2022-09-25T05:12:58.054Z,99.99
2022-09-25T05:13:58.078Z,99.99
2022-09-25T05:14:58.033Z,99.99
2022-09-25T05:15:58.219Z,99.99
2022-09-25T05:16:58.052Z,99.99
2022-09-25T05:17:58.048Z,99.99
2022-09-25T05:18:58.045Z,99.99
2022-09-25T05:19:58.101Z,99.99
2022-09-25T05:20:58.057Z,99.99
2022-09-25T05:21:58.039Z,99.99
2022-09-25T05:22:58.043Z,99.99
2022-09-25T05:23:58.056Z,99.99
2022-09-25T05:24:59.133Z,99.99
2022-09-25T05:25:58.048Z,99.99
2022-09-25T05:26:58.044Z,99.99
2022-09-25T05:27:58.042Z,99.99
2022-09-25T05:28:58.057Z,99.99
2022-09-25T05:29:58.045Z,99.99
2022-09-25T05:30:58.061Z,99.99
2022-09-25T05:31:58.033Z,99.99
2022-09-25T05:32:58.062Z,99.99
2022-09-25T05:33:58.053Z,99.99
2022-09-25T05:34:58.057Z,99.99
2022-09-25T05:35:58.078Z,99.99
2022-09-25T05:36:58.042Z,99.99
2022-09-25T05:37:58.045Z,99.99
2022-09-25T05:38:58.035Z,99.99
2022-09-25T05:39:58.059Z,99.99
2022-09-25T05:40:58.071Z,99.99
2022-09-25T05:41:58.048Z,99.99
2022-09-25T05:42:58.068Z,99.99
2022-09-25T05:43:58.066Z,99.99
2022-09-25T05:44:59.538Z,99.99
2022-09-25T05:45:58.119Z,99.99
2022-09-25T05:46:58.044Z,99.99
2022-09-25T05:47:58.042Z,99.99
2022-09-25T05:48:58.038Z,99.99
2022-09-25T05:49:58.054Z,99.99
2022-09-25T05:50:58.071Z,99.99
2022-09-25T05:51:58.062Z,99.99
2022-09-25T05:52:58.037Z,99.99
2022-09-25T05:53:58.044Z,99.99
2022-09-25T05:54:58.051Z,99.99
2022-09-25T05:55:58.097Z,99.99
2022-09-25T05:56:58.066Z,99.99
2022-09-25T05:57:58.059Z,99.99
2022-09-25T05:58:58.038Z,99.99
2022-09-25T05:59:58.044Z,99.99
2022-09-25T06:00:58.052Z,99.99
2022-09-25T06:01:58.113Z,99.99
2022-09-25T06:02:58.149Z,99.99
2022-09-25T06:03:58.055Z,99.99
2022-09-25T06:04:58.052Z,99.62
2022-09-25T06:05:58.066Z,99.52
2022-09-25T06:06:58.037Z,98.57
2022-09-25T06:07:58.047Z,98.90
2022-09-25T06:08:58.071Z,98.57
2022-09-25T06:09:58.049Z,98.24
2022-09-25T06:10:58.047Z,98.43
2022-09-25T06:11:58.056Z,98.90
2022-09-25T06:12:58.038Z,98.95
2022-09-25T06:13:58.064Z,98.33
2022-09-25T06:14:58.050Z,98.43
2022-09-25T06:15:58.087Z,98.04
2022-09-25T06:16:58.050Z,97.95
2022-09-25T06:17:58.097Z,97.95
2022-09-25T06:18:58.062Z,97.75
2022-09-25T06:19:58.068Z,97.56
2022-09-25T06:20:58.054Z,97.18
2022-09-25T06:21:58.061Z,97.18
2022-09-25T06:22:58.053Z,97.56
2022-09-25T06:23:58.049Z,97.75
2022-09-25T06:24:58.053Z,97.95
2022-09-25T06:25:58.057Z,97.95
2022-09-25T06:26:58.057Z,97.95
2022-09-25T06:27:58.046Z,97.47
2022-09-25T06:29:02.867Z,98.14
2022-09-25T06:29:58.058Z,98.14
2022-09-25T06:30:58.134Z,98.61
2022-09-25T06:31:58.051Z,98.24
2022-09-25T06:32:58.045Z,98.43
2022-09-25T06:33:58.044Z,98.47
2022-09-25T06:34:58.054Z,97.85
2022-09-25T06:35:58.073Z,97.33
2022-09-25T06:36:58.178Z,97.90
2022-09-25T06:37:58.065Z,97.71
2022-09-25T06:38:58.058Z,97.47
2022-09-25T06:39:58.045Z,97.04
2022-09-25T06:41:00.066Z,96.66
2022-09-25T06:41:58.058Z,96.56
2022-09-25T06:42:58.065Z,96.13
2022-09-25T06:43:58.054Z,95.65
2022-09-25T06:44:58.050Z,95.65
2022-09-25T06:45:58.086Z,96.13
2022-09-25T06:46:58.062Z,95.70
2022-09-25T06:47:58.048Z,96.47
2022-09-25T06:48:58.047Z,96.99
2022-09-25T06:49:58.063Z,97.28
2022-09-25T06:50:58.059Z,97.90
2022-09-25T06:51:58.074Z,97.85
2022-09-25T06:52:58.086Z,97.23
2022-09-25T06:53:58.046Z,97.52
2022-09-25T06:54:58.061Z,97.42
2022-09-25T06:55:58.050Z,97.33
2022-09-25T06:56:58.096Z,97.71
2022-09-25T06:57:58.048Z,97.71
2022-09-25T06:58:58.057Z,98.09
2022-09-25T06:59:58.049Z,98.47
2022-09-25T07:00:58.064Z,97.99
2022-09-25T07:01:58.142Z,98.09
2022-09-25T07:02:58.182Z,98.47
2022-09-25T07:03:58.088Z,98.28
2022-09-25T07:04:58.059Z,98.18
2022-09-25T07:05:58.060Z,98.38
2022-09-25T07:06:58.069Z,98.38
2022-09-25T07:07:58.073Z,99.04
2022-09-25T07:08:58.069Z,98.85
2022-09-25T07:09:58.049Z,98.18
2022-09-25T07:10:58.076Z,98.28
2022-09-25T07:11:58.053Z,98.09
2022-09-25T07:12:58.068Z,98.09
2022-09-25T07:13:58.111Z,98.38
2022-09-25T07:14:58.081Z,98.38
2022-09-25T07:15:58.130Z,98.38
2022-09-25T07:16:58.068Z,97.90
2022-09-25T07:17:58.074Z,98.18
2022-09-25T07:18:58.087Z,97.99
2022-09-25T07:19:58.095Z,98.28
2022-09-25T07:20:58.083Z,97.33
2022-09-25T07:21:58.063Z,98.47
2022-09-25T07:22:58.100Z,98.28
2022-09-25T07:23:58.067Z,98.57
2022-09-25T07:24:58.082Z,98.75
2022-09-25T07:25:58.068Z,99.04
2022-09-25T07:26:58.063Z,98.66
2022-09-25T07:27:58.073Z,98.85
2022-09-25T07:28:58.061Z,99.24
2022-09-25T07:29:58.054Z,99.67
2022-09-25T07:30:58.148Z,98.66
2022-09-25T07:31:58.072Z,98.85
2022-09-25T07:33:00.255Z,98.43
2022-09-25T07:33:58.071Z,98.90
2022-09-25T07:34:58.057Z,99.04
2022-09-25T07:35:58.078Z,99.29
2022-09-25T07:36:58.069Z,98.61
2022-09-25T07:37:58.055Z,98.57
2022-09-25T07:38:58.083Z,99.29
2022-09-25T07:39:58.086Z,99.10
2022-09-25T07:40:58.165Z,99.10
2022-09-25T07:41:58.066Z,99.00
2022-09-25T07:42:58.073Z,98.90
2022-09-25T07:44:58.058Z,98.90
2022-09-25T07:45:58.090Z,98.52
2022-09-25T07:46:58.077Z,99.00
2022-09-25T07:47:58.078Z,98.90
2022-09-25T07:48:58.061Z,98.90
2022-09-25T07:49:58.087Z,98.33
2022-09-25T07:50:58.072Z,98.61
2022-09-25T07:51:58.085Z,98.14
2022-09-25T07:52:58.087Z,98.81
2022-09-25T07:53:58.060Z,98.81
2022-09-25T07:54:58.062Z,99.29
2022-09-25T07:56:01.033Z,99.67
2022-09-25T07:56:58.098Z,99.76
2022-09-25T07:57:58.093Z,99.76
2022-09-25T07:58:58.082Z,99.86
2022-09-25T07:59:58.067Z,99.29
2022-09-25T08:00:58.083Z,99.57
2022-09-25T08:01:58.269Z,99.72
2022-09-25T08:02:58.124Z,99.81
2022-09-25T08:03:58.114Z,99.15
2022-09-25T08:04:58.104Z,99.43
2022-09-25T08:05:58.687Z,98.76
2022-09-25T08:06:58.098Z,98.86
2022-09-25T08:07:58.086Z,98.95
2022-09-25T08:08:58.107Z,98.57
2022-09-25T08:09:58.098Z,97.52
2022-09-25T08:10:58.170Z,97.13
2022-09-25T08:11:58.071Z,96.27
2022-09-25T08:12:58.076Z,97.04
2022-09-25T08:13:58.072Z,96.47
2022-09-25T08:14:58.108Z,96.37
2022-09-25T08:15:58.124Z,96.75
2022-09-25T08:16:58.093Z,97.13
2022-09-25T08:17:58.092Z,97.33
2022-09-25T08:18:58.101Z,97.42
2022-09-25T08:19:58.080Z,97.90
2022-09-25T08:20:58.125Z,97.80
2022-09-25T08:21:58.090Z,98.09
2022-09-25T08:22:58.091Z,97.47
2022-09-25T08:23:58.091Z,97.47
2022-09-25T08:24:58.093Z,96.75
2022-09-25T08:25:58.101Z,96.51
2022-09-25T08:26:58.102Z,95.75
2022-09-25T08:27:58.089Z,95.75
2022-09-25T08:28:58.103Z,95.94
2022-09-25T08:29:58.089Z,96.13
2022-09-25T08:30:58.149Z,96.22
2022-09-25T08:31:58.091Z,95.84
2022-09-25T08:32:58.092Z,95.75
2022-09-25T08:34:09.708Z,95.94
2022-09-25T08:34:58.123Z,95.75
2022-09-25T08:35:58.088Z,95.84
2022-09-25T08:36:58.083Z,95.56
2022-09-25T08:37:58.091Z,95.36
2022-09-25T08:38:58.086Z,95.27
2022-09-25T08:39:58.098Z,94.98
2022-09-25T08:40:58.151Z,94.31
2022-09-25T08:41:58.092Z,94.35
2022-09-25T08:42:58.105Z,94.35
2022-09-25T08:43:58.095Z,94.26
2022-09-25T08:45:19.916Z,94.07
2022-09-25T08:45:58.135Z,94.07
2022-09-25T08:46:58.112Z,94.07
2022-09-25T08:47:58.097Z,93.49
2022-09-25T08:48:58.092Z,93.30
2022-09-25T08:49:58.297Z,93.59
2022-09-25T08:50:58.102Z,93.98
2022-09-25T08:51:58.105Z,93.98
2022-09-25T08:52:58.104Z,94.50
2022-09-25T08:53:58.096Z,93.69
2022-09-25T08:54:58.131Z,94.02
2022-09-25T08:55:58.114Z,93.54
2022-09-25T08:56:58.114Z,93.93
2022-09-25T08:57:58.121Z,93.11
2022-09-25T08:58:58.122Z,93.78
2022-09-25T09:00:01.527Z,93.69
2022-09-25T09:00:58.214Z,93.78
2022-09-25T09:01:58.117Z,94.55
2022-09-25T09:02:58.170Z,95.03
2022-09-25T09:04:06.281Z,94.55
2022-09-25T09:04:58.124Z,94.64
2022-09-25T09:05:58.147Z,95.31
2022-09-25T09:07:25.149Z,94.31
2022-09-25T09:07:58.114Z,93.40
2022-09-25T09:08:58.126Z,93.69
2022-09-25T09:09:58.129Z,93.93
2022-09-25T09:10:58.142Z,94.35
2022-09-25T09:11:58.142Z,94.40
2022-09-25T09:12:58.137Z,94.02
2022-09-25T09:13:58.135Z,94.12
2022-09-25T09:14:58.148Z,93.54
2022-09-25T09:15:58.192Z,93.73
2022-09-25T09:16:58.158Z,93.63
2022-09-25T09:17:58.159Z,92.87
2022-09-25T09:18:58.135Z,92.87
2022-09-25T09:19:58.137Z,93.35
2022-09-25T09:20:58.161Z,93.44
2022-09-25T09:21:58.139Z,93.35
2022-09-25T09:22:58.180Z,93.54
2022-09-25T09:23:58.143Z,92.87
2022-09-25T09:24:58.150Z,93.06
2022-09-25T09:25:58.151Z,93.16
2022-09-25T09:26:58.152Z,93.16
2022-09-25T09:27:58.174Z,92.77
2022-09-25T09:28:58.160Z,93.16
2022-09-25T09:30:02.951Z,92.87
2022-09-25T09:30:58.207Z,92.82
2022-09-25T09:31:58.162Z,92.24
2022-09-25T09:32:58.157Z,92.82
2022-09-25T09:33:58.217Z,92.44
2022-09-25T09:35:07.036Z,92.44
2022-09-25T09:35:58.159Z,92.05
2022-09-25T09:36:58.154Z,91.00
2022-09-25T09:37:58.164Z,91.00
2022-09-25T09:38:58.181Z,91.33
2022-09-25T09:39:58.158Z,91.81
2022-09-25T09:40:58.276Z,89.70
2022-09-25T09:41:58.158Z,89.22
2022-09-25T09:42:58.179Z,88.93
2022-09-25T09:43:58.264Z,88.65
2022-09-25T09:44:58.164Z,88.74
2022-09-25T09:45:58.209Z,89.12
2022-09-25T09:46:58.174Z,88.84
2022-09-25T09:47:58.186Z,88.65
2022-09-25T09:48:58.200Z,87.92
2022-09-25T09:49:58.174Z,88.59
2022-09-25T09:50:58.199Z,87.92
2022-09-25T09:51:58.181Z,86.58
2022-09-25T09:52:58.205Z,86.58
2022-09-25T09:53:58.202Z,86.58
2022-09-25T09:54:58.211Z,86.48
2022-09-25T09:55:58.208Z,86.29
2022-09-25T09:56:58.218Z,86.29
2022-09-25T09:57:58.198Z,85.91
2022-09-25T09:58:58.288Z,86.48
2022-09-25T10:00:03.707Z,85.71
2022-09-25T10:01:06.967Z,86.29
2022-09-25T10:01:58.378Z,86.77
2022-09-25T10:02:58.364Z,87.39
2022-09-25T10:03:58.236Z,86.62
2022-09-25T10:04:58.227Z,86.18
2022-09-25T10:05:58.212Z,85.51
2022-09-25T10:06:58.226Z,84.74
2022-09-25T10:07:58.226Z,84.55
2022-09-25T10:08:58.248Z,84.84
2022-09-25T10:09:58.245Z,85.80
2022-09-25T10:10:58.234Z,85.61
2022-09-25T10:11:58.243Z,86.38
2022-09-25T10:13:00.869Z,85.71
2022-09-25T10:13:58.239Z,84.74
2022-09-25T10:14:58.244Z,84.88
2022-09-25T10:15:58.311Z,84.17
2022-09-25T10:16:58.254Z,84.84
2022-09-25T10:17:58.251Z,84.88
2022-09-25T10:18:58.272Z,84.84
2022-09-25T10:19:58.245Z,85.65
2022-09-25T10:20:58.279Z,84.88
2022-09-25T10:21:58.285Z,84.78
2022-09-25T10:22:58.270Z,84.78
2022-09-25T10:23:58.260Z,85.07
2022-09-25T10:24:58.263Z,84.21
2022-09-25T10:25:58.284Z,84.21
2022-09-25T10:26:58.297Z,84.30
2022-09-25T10:27:58.278Z,84.83
2022-09-25T10:28:58.289Z,84.44
2022-09-25T10:29:58.289Z,83.48
2022-09-25T10:30:58.494Z,82.61
2022-09-25T10:31:58.304Z,83.29
2022-09-25T10:32:58.474Z,83.09
2022-09-25T10:33:58.298Z,83.86
2022-09-25T10:34:58.308Z,83.48
2022-09-25T10:35:58.309Z,83.91
2022-09-25T10:37:05.375Z,84.54
2022-09-25T10:37:58.304Z,82.71
2022-09-25T10:39:18.045Z,82.23
2022-09-25T10:39:58.340Z,82.14
2022-09-25T10:40:58.429Z,82.04
2022-09-25T10:41:58.338Z,82.61
2022-09-25T10:42:58.344Z,83.19
2022-09-25T10:43:58.340Z,83.00
2022-09-25T10:44:58.421Z,82.90
2022-09-25T10:45:58.415Z,82.61
2022-09-25T10:46:58.356Z,82.52
2022-09-25T10:47:58.350Z,82.52
2022-09-25T10:48:58.369Z,82.38
2022-09-25T10:49:58.358Z,82.38
2022-09-25T10:50:58.367Z,83.63
2022-09-25T10:51:58.356Z,83.34
2022-09-25T10:52:58.361Z,83.83
2022-09-25T10:53:58.385Z,84.21
2022-09-25T10:54:58.378Z,84.78
2022-09-25T10:55:58.381Z,85.07
2022-09-25T10:56:58.390Z,85.65
2022-09-25T10:57:58.408Z,85.27
2022-09-25T10:58:58.407Z,85.22
2022-09-25T10:59:58.397Z,85.71
2022-09-25T11:00:58.481Z,85.65
2022-09-25T11:01:58.499Z,85.03
2022-09-25T11:02:58.464Z,85.84
2022-09-25T11:03:58.410Z,85.65
2022-09-25T11:04:58.413Z,85.65
2022-09-25T11:05:58.423Z,85.75
2022-09-25T11:06:58.435Z,85.84
2022-09-25T11:07:58.410Z,84.59
2022-09-25T11:08:58.437Z,84.40
2022-09-25T11:10:00.392Z,83.86
2022-09-25T11:10:58.419Z,83.48
2022-09-25T11:11:58.439Z,82.61
2022-09-25T11:12:58.438Z,83.29
2022-09-25T11:13:58.451Z,83.14
2022-09-25T11:14:58.447Z,83.72
2022-09-25T11:15:58.451Z,82.56
2022-09-25T11:16:58.527Z,83.42
2022-09-25T11:17:58.443Z,82.65
2022-09-25T11:19:03.868Z,83.52
2022-09-25T11:19:58.478Z,83.18
2022-09-25T11:20:58.465Z,81.93
2022-09-25T11:21:58.466Z,81.93
2022-09-25T11:22:58.475Z,81.63
2022-09-25T11:23:58.464Z,82.02
2022-09-25T11:25:01.324Z,82.21
2022-09-25T11:25:58.488Z,82.35
2022-09-25T11:26:58.492Z,81.77
2022-09-25T11:27:58.480Z,81.87
2022-09-25T11:28:58.495Z,82.20
2022-09-25T11:29:58.502Z,81.24
2022-09-25T11:30:58.536Z,80.85
2022-09-25T11:31:58.495Z,80.79
2022-09-25T11:32:58.504Z,79.97
2022-09-25T11:33:58.530Z,79.00
2022-09-25T11:34:58.520Z,77.69
2022-09-25T11:35:58.531Z,76.47
2022-09-25T11:36:58.530Z,75.74
2022-09-25T11:37:58.525Z,75.29
2022-09-25T11:38:58.534Z,73.97
2022-09-25T11:39:58.557Z,72.42
2022-09-25T11:40:58.591Z,71.92
2022-09-25T11:41:58.566Z,70.34
2022-09-25T11:42:58.544Z,68.54
2022-09-25T11:43:58.574Z,67.69
2022-09-25T11:44:58.557Z,66.27
2022-09-25T11:45:58.629Z,62.94
2022-09-25T11:46:58.559Z,60.64
2022-09-25T11:47:58.571Z,59.31
2022-09-25T11:48:58.586Z,59.53
2022-09-25T11:49:58.575Z,58.56
2022-09-25T11:50:58.596Z,58.10
2022-09-25T11:51:58.598Z,57.71
2022-09-25T11:52:58.578Z,57.15
2022-09-25T11:54:17.923Z,55.57
2022-09-25T11:54:58.617Z,55.83
2022-09-25T11:55:58.608Z,55.98
2022-09-25T11:56:58.606Z,57.72
2022-09-25T11:57:58.608Z,59.18
2022-09-25T11:58:58.615Z,58.50
2022-09-25T11:59:58.637Z,58.31
2022-09-25T12:00:58.617Z,58.21
2022-09-25T12:01:58.633Z,58.72
2022-09-25T12:02:58.624Z,58.04
2022-09-25T12:03:58.652Z,57.62
2022-09-25T12:04:58.633Z,57.53
2022-09-25T12:05:58.642Z,58.11
2022-09-25T12:06:58.657Z,58.54
2022-09-25T12:07:58.647Z,59.09
2022-09-25T12:08:58.675Z,60.13
2022-09-25T12:09:58.679Z,60.65
2022-09-25T12:10:58.687Z,61.49
2022-09-25T12:11:58.680Z,61.76
2022-09-25T12:12:58.682Z,63.76
2022-09-25T12:13:58.678Z,64.92
2022-09-25T12:14:58.683Z,65.08
2022-09-25T12:15:58.705Z,64.89
2022-09-25T12:16:58.704Z,64.98
2022-09-25T12:17:58.707Z,64.89
2022-09-25T12:18:58.728Z,64.69
2022-09-25T12:19:58.724Z,65.53
2022-09-25T12:20:58.728Z,65.14
2022-09-25T12:21:58.729Z,65.82
2022-09-25T12:22:58.738Z,66.01
2022-09-25T12:23:58.742Z,66.20
2022-09-25T12:24:58.730Z,65.92
2022-09-25T12:25:58.734Z,66.72
2022-09-25T12:26:58.749Z,65.95
2022-09-25T12:27:58.747Z,63.60
2022-09-25T12:28:58.763Z,63.31
2022-09-25T12:29:58.777Z,63.98
2022-09-25T12:31:01.271Z,63.24
2022-09-25T12:31:58.767Z,63.60
2022-09-25T12:32:58.780Z,64.08
2022-09-25T12:33:58.788Z,64.08
2022-09-25T12:34:58.810Z,63.98
2022-09-25T12:35:58.806Z,62.92
2022-09-25T12:36:58.806Z,62.73
2022-09-25T12:37:58.818Z,62.05
2022-09-25T12:38:58.808Z,61.57
2022-09-25T12:39:58.821Z,61.47
2022-09-25T12:40:58.831Z,62.05
2022-09-25T12:41:58.835Z,62.70
2022-09-25T12:42:58.819Z,63.66
2022-09-25T12:43:58.821Z,63.56
2022-09-25T12:44:58.834Z,63.08
2022-09-25T12:45:58.920Z,63.37
2022-09-25T12:46:58.845Z,63.85
2022-09-25T12:47:58.845Z,63.24
2022-09-25T12:48:58.848Z,63.34
2022-09-25T12:49:58.862Z,63.92
2022-09-25T12:51:04.303Z,64.98
2022-09-25T12:51:58.890Z,65.95
2022-09-25T12:52:58.880Z,65.37
2022-09-25T12:53:58.882Z,65.63